Home > Products > Valid Products > TAF

000
FTUS45 KREV 310500
TAFRNO
TAF
KRNO 310520Z 3106/0106 VRB03KT P6SM SCT250
     FM312300 10005KT P6SM SCT250=



000
FTUS45 KREV 310500
TAFRNO
TAF
KRNO 310520Z 3106/0106 VRB03KT P6SM SCT250
     FM312300 10005KT P6SM SCT250=



000
FTUS45 KREV 302300
TAFRNO
TAF
KRNO 302320Z 3100/3124 03010KT P6SM FEW045
     FM310400 VRB03KT P6SM SKC=



000
FTUS45 KREV 302300
TAFRNO
TAF
KRNO 302320Z 3100/3124 03010KT P6SM FEW045
     FM310400 VRB03KT P6SM SKC=



000
FTUS45 KREV 301700
TAFRNO
TAF
KRNO 301732Z 3018/3118 VRB04KT P6SM FEW030 SCT060 BKN080
     FM302100 03010KT P6SM SCT090
     FM310400 VRB03KT P6SM SKC=



000
FTUS45 KREV 301700
TAFRNO
TAF
KRNO 301732Z 3018/3118 VRB04KT P6SM FEW030 SCT060 BKN080
     FM302100 03010KT P6SM SCT090
     FM310400 VRB03KT P6SM SKC=



000
FTUS45 KREV 301100
TAFRNO
TAF
KRNO 301135Z 3012/3112 VRB04KT P6SM SCT060 BKN090
     FM302100 03010KT P6SM SCT090
     FM310400 VRB03KT P6SM SKC=



000
FTUS45 KREV 301100
TAFRNO
TAF
KRNO 301135Z 3012/3112 VRB04KT P6SM SCT060 BKN090
     FM302100 03010KT P6SM SCT090
     FM310400 VRB03KT P6SM SKC=



000
FTUS45 KREV 300500
TAFRNO
TAF
KRNO 300528Z 3006/3106 07008KT P6SM BKN060 BKN200
     FM302200 03008KT P6SM SCT200=



000
FTUS45 KREV 300400 AAA
TAFRNO
TAF AMD
KRNO 300406Z 3004/3024 07008KT P6SM BKN060 BKN200
     FM302200 03008KT P6SM SCT200=



000
FTUS45 KREV 300400 AAA
TAFRNO
TAF AMD
KRNO 300406Z 3004/3024 07008KT P6SM BKN060 BKN200
     FM302200 03008KT P6SM SCT200=



000
FTUS45 KREV 292300
TAFRNO
TAF
KRNO 292320Z 3000/3024 07008KT P6SM SCT060 BKN200
     FM300300 VRB03KT P6SM SCT050 SCT200
     FM302200 03008KT P6SM SCT200=



000
FTUS45 KREV 292300
TAFRNO
TAF
KRNO 292320Z 3000/3024 07008KT P6SM SCT060 BKN200
     FM300300 VRB03KT P6SM SCT050 SCT200
     FM302200 03008KT P6SM SCT200=



000
FTUS45 KREV 291700
TAFRNO
TAF
KRNO 291720Z 2918/3018 VRB03KT P6SM FEW030 BKN050 OVC200
     FM292200 07008KT P6SM SCT060 BKN200
     FM300300 VRB03KT P6SM SCT200=



000
FTUS45 KREV 291700
TAFRNO
TAF
KRNO 291720Z 2918/3018 VRB03KT P6SM FEW030 BKN050 OVC200
     FM292200 07008KT P6SM SCT060 BKN200
     FM300300 VRB03KT P6SM SCT200=



000
FTUS45 KREV 291100
TAFRNO
TAF
KRNO 291129Z 2912/3012 VRB03KT P6SM FEW100 BKN200
      TEMPO 2922/3002 07008KT
     FM300300 VRB03KT P6SM FEW200=



000
FTUS45 KREV 291100
TAFRNO
TAF
KRNO 291129Z 2912/3012 VRB03KT P6SM FEW100 BKN200
      TEMPO 2922/3002 07008KT
     FM300300 VRB03KT P6SM FEW200=



000
FTUS45 KREV 290500
TAFRNO
TAF
KRNO 290520Z 2906/3006 VRB03KT P6SM BKN200
     FM292100 07006KT P6SM FEW080 BKN200
     FM300200 VRB03KT P6SM SCT080 BKN150=



000
FTUS45 KREV 290500
TAFRNO
TAF
KRNO 290520Z 2906/3006 VRB03KT P6SM BKN200
     FM292100 07006KT P6SM FEW080 BKN200
     FM300200 VRB03KT P6SM SCT080 BKN150=



000
FTUS45 KREV 282300
TAFRNO
TAF
KRNO 282323Z 2900/2924 09008KT P6SM FEW080 FEW200
     FM290300 VRB03KT P6SM SCT200
     FM292100 07006KT P6SM FEW080 BKN200=



000
FTUS45 KREV 282300
TAFRNO
TAF
KRNO 282323Z 2900/2924 09008KT P6SM FEW080 FEW200
     FM290300 VRB03KT P6SM SCT200
     FM292100 07006KT P6SM FEW080 BKN200=



000
FTUS45 KREV 281700
TAFRNO
TAF
KRNO 281720Z 2818/2918 VRB03KT P6SM FEW120 FEW200
     FM282200 08008KT P6SM FEW200
     FM290300 VRB03KT P6SM SCT200=



000
FTUS45 KREV 281700
TAFRNO
TAF
KRNO 281720Z 2818/2918 VRB03KT P6SM FEW120 FEW200
     FM282200 08008KT P6SM FEW200
     FM290300 VRB03KT P6SM SCT200=



000
FTUS45 KREV 281100
TAFRNO
TAF
KRNO 281127Z 2812/2912 VRB03KT P6SM SCT100 BKN180
      TEMPO 2822/2902 07008KT=



000
FTUS45 KREV 281100
TAFRNO
TAF
KRNO 281127Z 2812/2912 VRB03KT P6SM SCT100 BKN180
      TEMPO 2822/2902 07008KT=



    US Dept of Commerce
    National Oceanic and Atmospheric Administration
    National Weather Service
    1325 East West Highway
    Silver Spring, MD 20910
    Page Author: NWS Internet Services Team
Disclaimer
Information Quality
Credits
Glossary
Privacy Policy
Freedom of Information Act (FOIA)
About Us
Career Opportunities